Time,TemperatureF,DewpointF,PressureIn,WindDirection,WindDirectionDegrees,WindSpeedMPH,WindSpeedGustMPH,Humidity,HourlyPrecipIn,Conditions,Clouds,dailyrainin,SoftwareType,DateUTC
2013-03-13 01:53:00,21.0,19.0,29.85,NNW,347,2.0,3.0,91,0.00,,,0.02,,2013-03-13 05:53:00,
2013-03-13 02:02:00,21.0,19.0,29.84,NW,313,2.0,4.0,91,0.00,,,0.02,,2013-03-13 06:02:00,
2013-03-13 02:13:00,21.0,19.0,29.84,NW,313,2.0,4.0,91,0.00,,,0.02,,2013-03-13 06:13:00,
2013-03-13 02:23:00,21.0,19.0,29.84,WNW,301,3.0,3.0,91,0.00,,,0.02,,2013-03-13 06:23:00,
2013-03-13 02:32:00,21.0,19.0,29.85,WNW,287,1.0,3.0,91,0.00,,,0.01,,2013-03-13 06:32:00,
2013-03-13 02:42:00,21.0,19.0,29.85,WNW,287,1.0,3.0,91,0.00,,,0.01,,2013-03-13 06:42:00,
2013-03-13 02:53:00,21.0,19.0,29.84,WNW,287,0.0,3.0,91,0.00,,,0.01,,2013-03-13 06:53:00,
2013-03-13 03:02:00,21.0,19.0,29.85,WNW,287,1.0,3.0,91,0.00,,,0.01,,2013-03-13 07:02:00,
2013-03-13 03:12:00,21.0,19.0,29.85,WNW,287,1.0,3.0,91,0.00,,,0.01,,2013-03-13 07:12:00,
2013-03-13 03:22:00,21.0,19.0,29.85,WNW,287,3.0,3.0,92,0.00,,,0.01,,2013-03-13 07:22:00,
2013-03-13 03:32:00,21.0,19.0,29.85,WNW,295,3.0,4.0,91,0.00,,,0.01,,2013-03-13 07:32:00,
2013-03-13 03:42:00,21.0,19.0,29.85,WNW,295,3.0,4.0,91,0.00,,,0.01,,2013-03-13 07:42:00,
2013-03-13 03:53:00,21.0,19.0,29.84,NW,322,0.0,4.0,91,0.00,,,0.01,,2013-03-13 07:53:00,
2013-03-13 04:03:00,21.0,19.0,29.84,NNW,327,2.0,4.0,91,0.00,,,0.01,,2013-03-13 08:03:00,
2013-03-13 04:12:00,21.0,19.0,29.84,NNW,327,2.0,4.0,91,0.00,,,0.01,,2013-03-13 08:12:00,
2013-03-13 04:22:00,21.0,19.0,29.85,North,356,10.0,10.0,91,0.00,,,0.01,,2013-03-13 08:22:00,
2013-03-13 04:32:00,20.0,18.0,29.85,NNW,329,2.0,6.0,91,0.00,,,0.01,,2013-03-13 08:32:00,
2013-03-13 04:43:00,20.0,18.0,29.85,NNW,329,2.0,6.0,91,0.00,,,0.01,,2013-03-13 08:43:00,
2013-03-13 04:54:00,20.0,17.0,29.85,North,351,6.0,10.0,89,0.00,,,0.01,,2013-03-13 08:54:00,
2013-03-13 05:02:00,20.0,16.0,29.85,North,0,5.0,13.0,85,0.00,,,0.01,,2013-03-13 09:02:00,
2013-03-13 05:12:00,20.0,16.0,29.85,North,0,5.0,13.0,85,0.00,,,0.01,,2013-03-13 09:12:00,
2013-03-13 05:22:00,20.0,16.0,29.85,NNW,331,6.0,13.0,84,0.00,,,0.01,,2013-03-13 09:22:00,
2013-03-13 05:32:00,19.0,15.0,29.86,North,0,7.0,12.0,84,0.00,,,0.01,,2013-03-13 09:32:00,
2013-03-13 05:42:00,19.0,15.0,29.86,North,0,7.0,12.0,84,0.00,,,0.01,,2013-03-13 09:42:00,
2013-03-13 05:52:00,19.0,15.0,29.87,NW,317,1.0,12.0,84,0.00,,,0.01,,2013-03-13 09:52:00,
2013-03-13 06:02:00,19.0,15.0,29.88,North,359,6.0,9.0,85,0.00,,,0.01,,2013-03-13 10:02:00,
2013-03-13 06:12:00,19.0,15.0,29.88,North,359,6.0,9.0,85,0.00,,,0.01,,2013-03-13 10:12:00,
2013-03-13 06:22:00,19.0,15.0,29.88,North,352,4.0,14.0,85,0.00,,,0.01,,2013-03-13 10:22:00,
2013-03-13 06:32:00,19.0,15.0,29.89,NNW,334,3.0,8.0,85,0.00,,,0.01,,2013-03-13 10:32:00,
2013-03-13 06:42:00,19.0,15.0,29.89,NNW,334,3.0,8.0,85,0.00,,,0.01,,2013-03-13 10:42:00,
2013-03-13 06:52:00,19.0,15.0,29.90,North,351,9.0,12.0,85,0.00,,,0.01,,2013-03-13 10:52:00,
2013-03-13 07:02:00,19.0,15.0,29.91,North,356,11.0,14.0,85,0.00,,,0.01,,2013-03-13 11:02:00,
2013-03-13 07:12:00,19.0,15.0,29.91,North,356,11.0,14.0,85,0.00,,,0.01,,2013-03-13 11:12:00,
2013-03-13 07:22:00,19.0,16.0,29.91,NNW,339,14.0,15.0,86,0.00,,,0.01,,2013-03-13 11:22:00,
2013-03-13 07:32:00,19.0,16.0,29.92,North,354,4.0,9.0,86,0.00,,,0.01,,2013-03-13 11:32:00,
2013-03-13 07:42:00,19.0,16.0,29.92,North,354,4.0,9.0,86,0.00,,,0.01,,2013-03-13 11:42:00,
2013-03-13 07:53:00,19.0,15.0,29.92,NNW,341,8.0,12.0,85,0.00,,,0.01,,2013-03-13 11:53:00,
2013-03-13 08:02:00,19.0,16.0,29.92,North,11,6.0,8.0,86,0.00,,,0.01,,2013-03-13 12:02:00,
2013-03-13 08:12:00,19.0,16.0,29.92,North,11,6.0,8.0,86,0.00,,,0.01,,2013-03-13 12:12:00,
2013-03-13 08:22:00,18.0,15.0,29.92,North,357,5.0,11.0,86,0.00,,,0.01,,2013-03-13 12:22:00,
2013-03-13 08:32:00,19.0,16.0,29.93,NNW,347,3.0,12.0,88,0.00,,,0.01,,2013-03-13 12:32:00,
2013-03-13 08:42:00,19.0,16.0,29.93,NNW,347,3.0,12.0,88,0.00,,,0.01,,2013-03-13 12:42:00,
2013-03-13 08:53:00,19.0,16.0,29.93,NNW,344,7.0,9.0,89,0.00,,,0.01,,2013-03-13 12:53:00,
2013-03-13 09:02:00,19.0,16.0,29.94,NNW,347,7.0,10.0,89,0.00,,,0.01,,2013-03-13 13:02:00,
2013-03-13 09:12:00,19.0,16.0,29.94,NNW,347,7.0,10.0,89,0.00,,,0.01,,2013-03-13 13:12:00,
2013-03-13 09:22:00,19.0,16.0,29.95,NNW,340,5.0,11.0,89,0.00,,,0.01,,2013-03-13 13:22:00,
2013-03-13 09:33:00,19.0,16.0,29.95,North,350,11.0,17.0,87,0.00,,,0.01,,2013-03-13 13:33:00,
2013-03-13 09:43:00,19.0,16.0,29.95,North,350,11.0,17.0,87,0.00,,,0.01,,2013-03-13 13:43:00,
2013-03-13 09:53:00,19.0,16.0,29.96,NNW,343,7.0,15.0,87,0.00,,,0.01,,2013-03-13 13:53:00,
2013-03-13 10:02:00,20.0,17.0,29.96,NNW,329,13.0,18.0,88,0.00,,,0.01,,2013-03-13 14:02:00,
2013-03-13 10:12:00,20.0,17.0,29.96,NNW,329,13.0,18.0,88,0.00,,,0.01,,2013-03-13 14:12:00,
2013-03-13 10:22:00,20.0,17.0,29.97,North,350,14.0,20.0,87,0.00,,,0.01,,2013-03-13 14:22:00,
2013-03-13 10:33:00,20.0,17.0,29.98,NNW,337,6.0,13.0,87,0.00,,,0.01,,2013-03-13 14:33:00,
2013-03-13 10:42:00,20.0,17.0,29.98,NNW,337,6.0,13.0,87,0.00,,,0.01,,2013-03-13 14:42:00,
2013-03-13 10:53:00,21.0,18.0,29.98,NNW,347,9.0,15.0,88,0.00,,,0.01,,2013-03-13 14:53:00,
2013-03-13 11:03:00,21.0,17.0,29.99,NNW,347,6.0,12.0,84,0.00,,,0.01,,2013-03-13 15:03:00,
2013-03-13 11:12:00,21.0,17.0,29.99,NNW,347,6.0,12.0,84,0.00,,,0.01,,2013-03-13 15:12:00,
2013-03-13 11:22:00,22.0,16.0,30.00,NNW,341,13.0,17.0,79,0.00,,,0.01,,2013-03-13 15:22:00,
2013-03-13 11:32:00,22.0,16.0,30.01,NNE,22,8.0,17.0,76,0.00,,,0.01,,2013-03-13 15:32:00,
2013-03-13 11:43:00,22.0,16.0,30.01,NNE,22,8.0,17.0,76,0.00,,,0.01,,2013-03-13 15:43:00,
2013-03-13 11:53:00,22.0,15.0,30.02,North,0,10.0,19.0,74,0.00,,,0.01,,2013-03-13 15:53:00,
2013-03-13 12:03:00,22.0,15.0,30.02,North,5,10.0,17.0,73,0.00,,,0.01,,2013-03-13 16:03:00,
2013-03-13 12:12:00,22.0,15.0,30.02,North,5,10.0,17.0,73,0.00,,,0.01,,2013-03-13 16:12:00,
2013-03-13 12:22:00,23.0,15.0,30.03,North,351,10.0,18.0,71,0.00,,,0.01,,2013-03-13 16:22:00,
2013-03-13 12:32:00,23.0,14.0,30.03,NW,322,8.0,19.0,69,0.00,,,0.01,,2013-03-13 16:32:00,
2013-03-13 12:42:00,23.0,14.0,30.03,NW,322,8.0,19.0,69,0.00,,,0.01,,2013-03-13 16:42:00,
2013-03-13 12:50:00,24.0,15.0,30.05,NNW,331,9.0,17.0,69,0.00,,,0.01,,2013-03-13 16:50:00,
2013-03-13 12:52:00,23.0,14.0,30.04,NNW,337,14.0,22.0,69,0.00,,,0.01,,2013-03-13 16:52:00,
2013-03-13 13:02:00,24.0,15.0,30.05,North,0,7.0,17.0,69,0.00,,,0.01,,2013-03-13 17:02:00,
2013-03-13 13:12:00,24.0,15.0,30.05,North,0,7.0,17.0,69,0.00,,,0.01,,2013-03-13 17:12:00,
2013-03-13 13:22:00,24.0,15.0,30.05,NNW,331,9.0,17.0,69,0.00,,,0.01,,2013-03-13 17:22:00,
2013-03-13 13:32:00,24.0,15.0,30.05,NNW,331,9.0,17.0,69,0.00,,,0.01,,2013-03-13 17:32:00,
2013-03-13 13:42:00,24.0,15.0,30.05,NNW,331,9.0,17.0,69,0.00,,,0.01,,2013-03-13 17:42:00,
2013-03-13 19:32:00,26.0,14.0,30.15,NNW,342,4.0,14.0,60,0.00,,,0.00,,2013-03-13 23:32:00,
2013-03-13 19:43:00,26.0,14.0,30.15,NNW,342,4.0,14.0,60,0.00,,,0.00,,2013-03-13 23:43:00,
2013-03-13 19:52:00,26.0,14.0,30.16,North,353,4.0,13.0,60,0.00,,,0.00,,2013-03-13 23:52:00,
2013-03-13 20:02:00,25.0,14.0,30.16,NNW,345,7.0,11.0,62,0.00,,,0.00,,2013-03-14 00:02:00,
2013-03-13 20:13:00,25.0,14.0,30.16,NNW,345,7.0,11.0,62,0.00,,,0.00,,2013-03-14 00:13:00,
2013-03-13 20:22:00,25.0,14.0,30.16,NW,326,4.0,11.0,62,0.00,,,0.00,,2013-03-14 00:22:00,
2013-03-13 20:32:00,25.0,14.0,30.17,NW,314,3.0,11.0,63,0.00,,,0.00,,2013-03-14 00:32:00,
2013-03-13 20:42:00,25.0,14.0,30.17,NW,314,3.0,11.0,63,0.00,,,0.00,,2013-03-14 00:42:00,
2013-03-13 20:52:00,25.0,15.0,30.17,NNW,337,6.0,12.0,64,0.00,,,0.00,,2013-03-14 00:52:00,
2013-03-13 21:02:00,25.0,15.0,30.18,NNW,343,2.0,13.0,65,0.00,,,0.00,,2013-03-14 01:02:00,
2013-03-13 21:12:00,25.0,15.0,30.18,NNW,343,2.0,13.0,65,0.00,,,0.00,,2013-03-14 01:12:00,
2013-03-13 21:22:00,25.0,15.0,30.18,NNW,346,7.0,13.0,65,0.00,,,0.00,,2013-03-14 01:22:00,
2013-03-13 21:32:00,25.0,15.0,30.19,North,7,7.0,13.0,66,0.00,,,0.00,,2013-03-14 01:32:00,
2013-03-13 21:42:00,25.0,15.0,30.19,North,7,7.0,13.0,66,0.00,,,0.00,,2013-03-14 01:42:00,
2013-03-13 21:53:00,25.0,16.0,30.19,NNW,348,11.0,12.0,68,0.00,,,0.00,,2013-03-14 01:53:00,
2013-03-13 22:02:00,25.0,17.0,30.19,NNW,342,4.0,17.0,70,0.00,,,0.00,,2013-03-14 02:02:00,
2013-03-13 22:12:00,25.0,17.0,30.19,NNW,342,4.0,17.0,70,0.00,,,0.00,,2013-03-14 02:12:00,
2013-03-13 22:22:00,25.0,17.0,30.19,NNW,346,10.0,17.0,70,0.00,,,0.00,,2013-03-14 02:22:00,
2013-03-13 22:32:00,25.0,17.0,30.19,NNW,336,4.0,13.0,71,0.00,,,0.00,,2013-03-14 02:32:00,
2013-03-13 22:42:00,25.0,17.0,30.19,NNW,336,4.0,13.0,71,0.00,,,0.00,,2013-03-14 02:42:00,
2013-03-13 22:52:00,25.0,17.0,30.19,NNW,336,4.0,13.0,71,0.00,,,0.00,,2013-03-14 02:52:00,
2013-03-13 23:02:00,25.0,17.0,30.20,NNW,333,8.0,13.0,70,0.00,,,0.00,,2013-03-14 03:02:00,
2013-03-13 23:12:00,25.0,17.0,30.20,NNW,333,8.0,13.0,70,0.00,,,0.00,,2013-03-14 03:12:00,
2013-03-13 23:23:00,25.0,16.0,30.19,NNW,344,1.0,12.0,68,0.00,,,0.00,,2013-03-14 03:23:00,
2013-03-13 23:32:00,25.0,17.0,30.19,North,349,14.0,15.0,70,0.00,,,0.00,,2013-03-14 03:32:00,
2013-03-13 23:42:00,25.0,17.0,30.19,North,349,14.0,15.0,70,0.00,,,0.00,,2013-03-14 03:42:00,
2013-03-13 23:53:00,26.0,16.0,30.19,NNW,343,11.0,16.0,66,0.00,,,0.00,,2013-03-14 03:53:00,